x

Shp - Shell Point, Fl (shpf1) Weather Station

3:54am - Sat 27th Aug 2016 All times are CDT. -5 hours from GMT.

  • Wind
    8mph, 14mph gusts
  • Air Temp 81°f
  • Sea Pressure 1013.9mb
  • Shp - Shell Point, Fl
  • Shp - Shell Point, Fl

More Historic Weather Station data

Upgrade to MSW Pro to gain access to the past 30 days of data for over 8000 Wavebouys and Weather Stations around the globe.

Join Pro

Comparision Forecast

View Surf forecast
   
Sat 08/27 3:54am 8 14 mph 1013.9mb 81f
3:48am 8 15 mph 1013.9mb 81f
2:54am 6 9 mph 1014mb 80f
2:48am 7 11 mph 1014mb 81f
1:54am 10 18 mph 1014.3mb 82f
1:48am 8 16 mph 1014.4mb 82f
12:54am 6 15 mph 1014.7mb 83f
12:48am 8 18 mph 1014.8mb 83f
Fri 08/26 11:54pm 9 17 mph 1015.4mb 83f
11:48pm 9 20 mph 1015.4mb 83f
10:54pm 6 10 mph 1015.8mb 83f
10:48pm 6 10 mph 1015.8mb 83f
9:54pm 6 10 mph 1015.6mb 84f
9:48pm 6 14 mph 1015.5mb 84f
8:54pm 5 10 mph 1014.9mb 85f
8:48pm 5 10 mph 1014.9mb 85f
7:54pm 8 16 mph 1014.4mb 87f
7:48pm 7 14 mph 1014.3mb 87f
6:54pm 8 15 mph 1013.8mb 89f
6:48pm 7 17 mph 1013.7mb 89f
5:54pm 3 5 mph 1013mb 91f
5:48pm 2 5 mph 1013mb 91f
4:54pm 6 7 mph 1013.2mb 91f
4:48pm 6 8 mph 1013.2mb 91f
3:54pm 8 13 mph 1013.6mb 91f
3:48pm 8 10 mph 1013.7mb 91f
2:54pm 5 11 mph 1014.2mb 92f
2:48pm 6 10 mph 1014.3mb 91f
1:54pm 6 10 mph 1014.8mb 90f
1:48pm 7 10 mph 1014.9mb 90f
12:54pm 8 11 mph 1015.5mb 87f
12:48pm 7 11 mph 1015.5mb 88f
11:54am 7 10 mph 1016mb 88f
11:48am 7 10 mph 1016.1mb 88f
10:54am 7 10 mph 1016.5mb 85f
10:48am 6 9 mph 1016.6mb 85f
8:54am 5 11 mph 1016.6mb 83f
8:48am 6 17 mph 1016.5mb 82f
7:54am 6 13 mph 1016.3mb 80f
7:48am 5 9 mph 1016.3mb 80f
6:54am 5 9 mph 1016.2mb 78f
6:48am 3 9 mph 1016.2mb 77f
5:54am 3 10 mph 1015.8mb 77f
5:48am 5 9 mph 1015.8mb 78f
4:54am 5 8 mph 1015.6mb 77f
4:48am 5 10 mph 1015.6mb 78f
3:54am 3 7 mph 1015.9mb 78f
3:48am 3 7 mph 1016mb 78f
2:54am 5 8 mph 1016.4mb 78f
2:48am 5 8 mph 1016.4mb 77f
1:54am 3 7 mph 1016.5mb 79f
1:48am 5 9 mph 1016.5mb 79f
12:54am 3 8 mph 1016.6mb 80f
12:48am 3 7 mph 1016.6mb 80f
Thu 08/25 11:54pm 5 11 mph 1016.6mb 81f
11:48pm 5 9 mph 1016.6mb 82f
10:54pm 6 10 mph 1016.7mb 82f
10:48pm 6 11 mph 1016.6mb 82f
9:54pm 3 5 mph 1016.5mb 80f
9:48pm 3 5 mph 1016.4mb 80f
8:54pm 3 6 mph 1016.4mb 82f
8:48pm 3 5 mph 1016.3mb 82f
7:54pm 3 6 mph 1015.7mb 83f
7:48pm 3 6 mph 1015.7mb 83f
6:54pm 3 7 mph 1015.1mb 87f
6:48pm 5 8 mph 1015mb 87f
4:54pm 6 11 mph 1014.7mb 90f
4:48pm 7 14 mph 1014.7mb 90f
3:54pm 7 14 mph 1015.2mb 91f
3:48pm 8 16 mph 1015.2mb 90f
2:54pm 8 17 mph 1015.9mb 89f
2:48pm 7 14 mph 1015.9mb 89f
1:54pm 7 14 mph 1016.7mb 89f
1:48pm 6 10 mph 1016.9mb 89f
12:54pm 6 10 mph 1017.8mb 88f
12:48pm 7 11 mph 1017.8mb 88f
11:54am 7 15 mph 1018.7mb 87f
11:48am 7 13 mph 1018.8mb 87f
9:54am 6 16 mph 1019.3mb 85f
9:48am 5 10 mph 1019.4mb 84f
8:54am 6 11 mph 1019.4mb 82f
8:48am 7 14 mph 1019.4mb 82f
7:54am 5 9 mph 1019.4mb 79f
7:48am 5 9 mph 1019.4mb 78f
6:54am 5 9 mph 1018.9mb 76f
6:48am 5 10 mph 1018.9mb 76f
5:54am 3 7 mph 1018.5mb 76f
5:48am 5 11 mph 1018.5mb 76f
4:54am 6 9 mph 1018mb 76f
4:48am 5 9 mph 1017.9mb 77f
3:54am 5 9 mph 1017.7mb 78f
3:48am 5 9 mph 1017.6mb 78f
2:54am 5 10 mph 1017.7mb 77f
2:48am 3 7 mph 1017.6mb 77f
1:54am 5 9 mph 1017.8mb 78f
1:48am 5 9 mph 1017.8mb 79f
12:54am 5 9 mph 1018.4mb 80f
12:48am 3 9 mph 1018.4mb 80f
Wed 08/24 11:54pm 6 14 mph 1018.5mb 82f
11:48pm 7 15 mph 1018.5mb 82f
10:54pm 7 14 mph 1018.8mb 83f
10:48pm 7 11 mph 1018.8mb 83f
9:54pm 6 13 mph 1019.1mb 85f
9:48pm 7 17 mph 1019.2mb 86f
8:54pm 5 11 mph 1018.7mb 86f
8:48pm 6 13 mph 1018.7mb 86f
7:54pm 3 6 mph 1018.5mb 87f
7:48pm 5 7 mph 1018.4mb 87f
6:54pm 6 14 mph 1017.7mb 88f
6:48pm 5 13 mph 1017.7mb 89f
5:54pm 5 10 mph 1017.2mb 91f
5:48pm 5 8 mph 1017.3mb 91f
4:54pm 3 11 mph 1017.2mb 91f
4:48pm 3 6 mph 1017.2mb 90f
3:54pm 8 11 mph 1017.6mb 92f
3:48pm 7 9 mph 1017.7mb 92f
2:54pm 7 14 mph 1018.3mb 91f
2:48pm 6 10 mph 1018.3mb 91f
1:54pm 8 14 mph 1019.2mb 91f
1:48pm 7 11 mph 1019.3mb 91f
11:54am 6 10 mph 1020.4mb 89f
10:54am 5 10 mph 1021mb 87f
10:48am 6 11 mph 1021.2mb 87f
9:54am 5 8 mph 1021.1mb 86f
9:48am 5 10 mph 1021.1mb 85f